createdAt,value
2019-01-19T00:02:33.409Z,6.63
2019-01-19T00:05:25.178Z,4.67
2019-01-19T00:08:25.528Z,4.47
2019-01-19T00:11:37.700Z,4.20
2019-01-19T00:14:19.405Z,4.23
2019-01-19T00:17:29.652Z,4.10
2019-01-19T00:20:47.860Z,3.47
2019-01-19T00:24:09.430Z,3.80
2019-01-19T00:27:22.664Z,4.20
2019-01-19T00:30:38.820Z,3.77
2019-01-19T00:33:29.866Z,4.30
2019-01-19T00:36:19.923Z,3.70
2019-01-19T00:39:28.314Z,5.10
2019-01-19T00:42:24.305Z,7.20
2019-01-19T00:45:13.928Z,5.30
2019-01-19T00:48:12.079Z,4.83
2019-01-19T00:51:21.287Z,5.70
2019-01-19T00:53:56.419Z,5.73
2019-01-19T00:56:50.885Z,5.40
2019-01-19T00:59:26.993Z,5.60
2019-01-19T01:02:31.981Z,5.27
2019-01-19T01:05:25.710Z,4.70
2019-01-19T01:08:22.776Z,5.93
2019-01-19T01:11:14.921Z,5.57
2019-01-19T01:14:27.100Z,5.50
2019-01-19T01:17:34.690Z,6.33
2019-01-19T01:20:44.366Z,6.40
2019-01-19T01:23:48.760Z,10.80
2019-01-19T01:26:48.877Z,15.00
2019-01-19T01:29:55.489Z,9.20
2019-01-19T01:32:37.684Z,10.63
2019-01-19T01:35:49.770Z,5.10
2019-01-19T01:38:38.607Z,4.20
2019-01-19T01:41:51.781Z,3.80
2019-01-19T01:44:42.980Z,5.20
2019-01-19T01:47:56.317Z,4.10
2019-01-19T01:50:57.329Z,3.53
2019-01-19T01:54:20.053Z,4.40
2019-01-19T01:56:49.069Z,4.13
2019-01-19T01:59:54.689Z,5.30
2019-01-19T02:02:50.161Z,4.43
2019-01-19T02:05:59.469Z,5.73
2019-01-19T02:09:08.224Z,4.90
2019-01-19T02:12:13.528Z,4.33
2019-01-19T02:14:56.696Z,3.40
2019-01-19T02:18:24.933Z,4.10
2019-01-19T02:21:13.116Z,5.10
2019-01-19T02:24:08.850Z,3.77
2019-01-19T02:27:13.665Z,3.40
2019-01-19T02:30:19.533Z,3.90
2019-01-19T02:33:20.495Z,3.70
2019-01-19T02:36:12.925Z,16.37
2019-01-19T02:39:18.241Z,9.23
2019-01-19T02:42:27.247Z,10.00
2019-01-19T02:45:34.382Z,4.17
2019-01-19T02:48:56.733Z,3.90
2019-01-19T02:52:10.663Z,6.67
2019-01-19T02:55:10.259Z,4.67
2019-01-19T02:57:56.675Z,3.70
2019-01-19T03:01:06.734Z,4.93
2019-01-19T03:04:31.846Z,4.03
2019-01-19T03:07:22.859Z,5.20
2019-01-19T03:10:18.426Z,4.63
2019-01-19T03:13:19.994Z,5.73
2019-01-19T03:16:48.393Z,5.70
2019-01-19T03:19:38.213Z,6.70
2019-01-19T03:22:45.495Z,9.00
2019-01-19T03:26:16.965Z,4.50
2019-01-19T03:29:19.002Z,6.00
2019-01-19T03:32:29.703Z,4.87
2019-01-19T03:35:52.405Z,4.57
2019-01-19T03:38:53.886Z,4.20
2019-01-19T03:42:10.031Z,4.33
2019-01-19T03:45:30.282Z,4.20
2019-01-19T03:48:20.666Z,7.70
2019-01-19T03:51:12.894Z,4.07
2019-01-19T03:54:03.443Z,5.37
2019-01-19T03:57:12.773Z,8.47
2019-01-19T03:59:51.661Z,9.57
2019-01-19T04:03:04.854Z,6.00
2019-01-19T04:06:18.677Z,4.00
2019-01-19T04:09:18.150Z,5.30
2019-01-19T04:12:19.268Z,4.03
2019-01-19T04:15:04.858Z,4.60
2019-01-19T04:18:05.753Z,4.20
2019-01-19T04:20:57.679Z,3.37
2019-01-19T04:23:26.683Z,4.00
2019-01-19T04:26:06.287Z,4.07
2019-01-19T04:28:35.382Z,3.60
2019-01-19T04:31:04.386Z,4.40
2019-01-19T04:33:33.701Z,4.20
2019-01-19T04:36:02.695Z,4.30
2019-01-19T04:38:33.655Z,3.70
2019-01-19T04:41:02.870Z,4.33
2019-01-19T04:43:31.791Z,4.13
2019-01-19T04:46:00.785Z,6.13
2019-01-19T04:48:29.865Z,5.80
2019-01-19T04:50:58.863Z,4.37
2019-01-19T04:53:27.869Z,4.80
2019-01-19T04:55:56.873Z,5.27
2019-01-19T04:58:25.785Z,5.63
2019-01-19T05:00:54.706Z,8.23
2019-01-19T05:03:23.666Z,4.67
2019-01-19T05:05:52.650Z,3.90
2019-01-19T05:08:21.570Z,4.30
2019-01-19T05:10:50.594Z,4.50
2019-01-19T05:13:19.573Z,4.00
2019-01-19T05:15:48.580Z,4.40
2019-01-19T05:18:17.886Z,4.10
2019-01-19T05:20:47.224Z,4.00
2019-01-19T05:23:16.057Z,4.67
2019-01-19T05:25:47.359Z,3.97
2019-01-19T05:28:16.236Z,3.90
2019-01-19T05:30:45.229Z,3.40
2019-01-19T05:33:14.236Z,4.17
2019-01-19T05:35:43.233Z,4.23
2019-01-19T05:38:12.576Z,3.90
2019-01-19T05:40:41.686Z,4.47
2019-01-19T05:43:10.686Z,3.93
2019-01-19T05:45:39.613Z,4.27
2019-01-19T05:48:08.718Z,3.97
2019-01-19T05:50:37.812Z,3.23
2019-01-19T05:53:07.581Z,3.30
2019-01-19T05:55:36.948Z,3.23
2019-01-19T05:58:06.230Z,3.40
2019-01-19T06:00:36.437Z,3.07
2019-01-19T06:03:05.957Z,3.60
2019-01-19T06:05:35.393Z,2.73
2019-01-19T06:08:04.465Z,3.97
2019-01-19T06:10:33.400Z,3.60
2019-01-19T06:13:02.818Z,3.43
2019-01-19T06:15:31.810Z,3.03
2019-01-19T06:18:01.141Z,3.90
2019-01-19T06:20:30.102Z,3.30
2019-01-19T06:22:59.110Z,4.10
2019-01-19T06:25:28.126Z,4.17
2019-01-19T06:27:57.126Z,5.03
2019-01-19T06:30:26.190Z,4.13
2019-01-19T06:32:55.387Z,4.83
2019-01-19T06:35:24.858Z,4.50
2019-01-19T06:37:53.916Z,3.60
2019-01-19T06:40:22.942Z,3.80
2019-01-19T06:42:51.917Z,3.67
2019-01-19T06:45:25.917Z,3.90
2019-01-19T06:47:54.929Z,4.73
2019-01-19T06:50:24.052Z,3.40
2019-01-19T06:52:53.080Z,4.53
2019-01-19T06:55:27.940Z,4.47
2019-01-19T06:57:57.006Z,5.60
2019-01-19T07:00:26.019Z,5.10
2019-01-19T07:02:55.110Z,3.60
2019-01-19T07:05:24.109Z,5.10
2019-01-19T07:07:53.031Z,4.60
2019-01-19T07:10:23.342Z,4.13
2019-01-19T07:12:52.331Z,6.07
2019-01-19T07:15:21.329Z,4.63
2019-01-19T07:17:50.340Z,3.90
2019-01-19T07:20:25.064Z,3.40
2019-01-19T07:22:54.457Z,3.17
2019-01-19T07:25:23.482Z,4.63
2019-01-19T07:27:52.488Z,5.80
2019-01-19T07:30:21.578Z,5.40
2019-01-19T07:32:50.570Z,3.73
2019-01-19T07:35:19.573Z,4.67
2019-01-19T07:37:48.966Z,4.87
2019-01-19T07:40:18.559Z,17.17
2019-01-19T07:42:48.917Z,25.00
2019-01-19T07:45:17.953Z,9.67
2019-01-19T07:47:46.949Z,5.70
2019-01-19T07:50:17.372Z,5.60
2019-01-19T07:52:46.404Z,4.93
2019-01-19T07:55:16.351Z,11.87
2019-01-19T07:57:45.351Z,11.40
2019-01-19T08:00:17.086Z,14.70
2019-01-19T08:02:46.157Z,16.37
2019-01-19T08:05:15.453Z,6.03
2019-01-19T08:07:44.401Z,15.47
2019-01-19T08:10:14.714Z,10.57
2019-01-19T08:12:43.817Z,5.13
2019-01-19T08:15:15.429Z,6.57
2019-01-19T08:17:44.433Z,10.27
2019-01-19T08:20:13.634Z,8.40
2019-01-19T08:22:42.677Z,7.23
2019-01-19T08:25:11.837Z,7.80
2019-01-19T08:27:40.996Z,6.37
2019-01-19T08:30:15.901Z,8.10
2019-01-19T08:32:45.045Z,7.07
2019-01-19T08:35:15.906Z,3.70
2019-01-19T08:37:44.934Z,5.10
2019-01-19T08:40:19.409Z,5.47
2019-01-19T08:42:52.411Z,3.40
2019-01-19T08:45:21.778Z,5.57
2019-01-19T08:47:51.129Z,4.40
2019-01-19T08:50:20.110Z,7.30
2019-01-19T08:52:50.553Z,4.60
2019-01-19T08:55:19.657Z,5.50
2019-01-19T08:57:49.263Z,8.23
2019-01-19T09:00:18.282Z,9.90
2019-01-19T09:02:47.395Z,7.30
2019-01-19T09:05:16.601Z,9.10
2019-01-19T09:07:45.589Z,11.30
2019-01-19T09:10:14.961Z,5.90
2019-01-19T09:12:44.042Z,5.43
2019-01-19T09:15:14.318Z,6.60
2019-01-19T09:17:43.454Z,4.67
2019-01-19T09:20:13.562Z,6.60
2019-01-19T09:22:43.274Z,7.30
2019-01-19T09:25:13.667Z,6.70
2019-01-19T09:27:43.198Z,7.43
2019-01-19T09:30:15.441Z,6.40
2019-01-19T09:32:44.617Z,5.30
2019-01-19T09:35:13.635Z,7.40
2019-01-19T09:37:42.630Z,5.77
2019-01-19T09:40:13.056Z,6.77
2019-01-19T09:42:42.422Z,5.80
2019-01-19T09:45:11.873Z,5.70
2019-01-19T09:47:40.867Z,5.80
2019-01-19T09:50:12.100Z,6.20
2019-01-19T09:52:41.109Z,6.03
2019-01-19T09:55:10.921Z,8.23
2019-01-19T09:57:39.934Z,6.40
2019-01-19T10:00:12.353Z,6.43
2019-01-19T10:02:41.349Z,6.50
2019-01-19T10:05:16.497Z,4.60
2019-01-19T10:07:48.538Z,5.50
2019-01-19T10:10:16.245Z,4.20
2019-01-19T10:12:45.359Z,4.80
2019-01-19T10:15:15.421Z,5.40
2019-01-19T10:17:44.412Z,5.07
2019-01-19T10:20:15.983Z,6.27
2019-01-19T10:22:44.981Z,4.67
2019-01-19T10:25:14.416Z,4.60
2019-01-19T10:27:43.553Z,4.17
2019-01-19T10:30:17.792Z,5.03
2019-01-19T10:32:46.885Z,5.23
2019-01-19T10:35:16.645Z,4.27
2019-01-19T10:37:45.793Z,4.60
2019-01-19T10:40:15.240Z,4.97
2019-01-19T10:42:44.246Z,5.20
2019-01-19T10:45:15.734Z,4.70
2019-01-19T10:47:45.073Z,7.07
2019-01-19T10:50:15.550Z,5.23
2019-01-19T10:52:44.577Z,5.60
2019-01-19T10:55:15.642Z,5.13
2019-01-19T10:57:44.702Z,4.33
2019-01-19T11:00:18.205Z,4.57
2019-01-19T11:02:47.223Z,3.87
2019-01-19T11:05:16.249Z,4.40
2019-01-19T11:07:47.488Z,5.07
2019-01-19T11:10:19.126Z,4.50
2019-01-19T11:12:48.498Z,5.07
2019-01-19T11:15:17.641Z,4.27
2019-01-19T11:17:46.747Z,3.77
2019-01-19T11:20:20.557Z,3.20
2019-01-19T11:22:49.559Z,3.43
2019-01-19T11:25:18.665Z,4.53
2019-01-19T11:27:47.676Z,4.30
2019-01-19T11:30:18.913Z,5.83
2019-01-19T11:32:48.420Z,7.40
2019-01-19T11:35:18.321Z,6.93
2019-01-19T11:37:47.343Z,7.90
2019-01-19T11:40:18.935Z,7.60
2019-01-19T11:42:48.362Z,9.30
2019-01-19T11:45:19.350Z,9.77
2019-01-19T11:47:48.465Z,9.13
2019-01-19T11:50:17.820Z,9.30
2019-01-19T11:52:47.421Z,8.20
2019-01-19T11:55:18.860Z,8.07
2019-01-19T11:57:49.492Z,7.93
2019-01-19T12:00:23.581Z,9.80
2019-01-19T12:02:52.714Z,9.00
2019-01-19T12:05:21.720Z,10.50
2019-01-19T12:07:50.921Z,9.27
2019-01-19T12:10:22.122Z,9.67
2019-01-19T12:12:51.117Z,9.63
2019-01-19T12:15:20.551Z,8.50
2019-01-19T12:17:49.657Z,9.20
2019-01-19T12:20:21.176Z,8.93
2019-01-19T12:22:50.305Z,9.67
2019-01-19T12:25:20.870Z,10.10
2019-01-19T12:27:49.853Z,8.70
2019-01-19T12:30:21.216Z,9.80
2019-01-19T12:32:50.382Z,8.77
2019-01-19T12:35:19.465Z,9.40
2019-01-19T12:37:48.867Z,8.37
2019-01-19T12:40:19.793Z,9.30
2019-01-19T12:42:50.486Z,9.90
2019-01-19T12:45:25.923Z,10.73
2019-01-19T12:47:54.921Z,11.23
2019-01-19T12:50:26.319Z,10.50
2019-01-19T12:52:55.334Z,11.00
2019-01-19T12:55:24.333Z,9.40
2019-01-19T12:57:53.333Z,13.00
2019-01-19T13:00:24.548Z,13.70
2019-01-19T13:02:53.812Z,12.57
2019-01-19T13:05:33.151Z,11.50
2019-01-19T13:08:02.678Z,11.50
2019-01-19T13:10:41.826Z,10.50
2019-01-19T13:13:20.385Z,10.67
2019-01-19T13:16:29.557Z,10.40
2019-01-19T13:19:32.589Z,11.27
2019-01-19T13:22:49.953Z,9.80
2019-01-19T13:25:51.710Z,8.47
2019-01-19T13:28:59.033Z,10.27
2019-01-19T13:32:03.934Z,9.60
2019-01-19T13:35:13.996Z,11.53
2019-01-19T13:38:20.029Z,10.67
2019-01-19T13:41:29.286Z,13.53
2019-01-19T13:44:31.829Z,10.93
2019-01-19T13:47:47.979Z,10.10
2019-01-19T13:50:40.762Z,11.80
2019-01-19T13:53:51.009Z,10.80
2019-01-19T13:57:22.400Z,9.80
2019-01-19T14:00:22.137Z,10.97
2019-01-19T14:03:23.073Z,10.43
2019-01-19T14:06:45.044Z,9.27
2019-01-19T14:10:01.416Z,9.30
2019-01-19T14:13:22.785Z,9.33
2019-01-19T14:16:12.975Z,7.50
2019-01-19T14:19:25.953Z,9.63
2019-01-19T14:22:43.051Z,10.10
2019-01-19T14:25:55.562Z,7.40
2019-01-19T14:28:46.836Z,7.57
2019-01-19T14:32:03.576Z,8.37
2019-01-19T14:34:54.713Z,7.20
2019-01-19T14:38:00.826Z,8.80
2019-01-19T14:41:00.949Z,8.33
2019-01-19T14:44:17.958Z,9.10
2019-01-19T14:47:06.162Z,9.97
2019-01-19T14:50:28.721Z,8.80
2019-01-19T14:53:27.149Z,8.03
2019-01-19T14:56:31.520Z,8.43
2019-01-19T14:59:09.914Z,9.27
2019-01-19T15:01:56.773Z,9.60
2019-01-19T15:05:05.245Z,9.80
2019-01-19T15:08:17.401Z,9.37
2019-01-19T15:11:14.417Z,9.20
2019-01-19T15:14:15.442Z,11.30
2019-01-19T15:17:13.744Z,10.67
2019-01-19T15:20:18.659Z,9.90
2019-01-19T15:23:20.262Z,8.30
2019-01-19T15:26:36.425Z,6.60
2019-01-19T15:29:29.880Z,8.10
2019-01-19T15:32:42.068Z,7.57
2019-01-19T15:35:39.066Z,6.90
2019-01-19T15:38:37.554Z,7.00
2019-01-19T15:41:32.577Z,7.07
2019-01-19T15:44:47.828Z,6.60
2019-01-19T15:47:49.566Z,6.10
2019-01-19T15:50:29.466Z,7.20
2019-01-19T15:53:27.474Z,7.80
2019-01-19T15:56:38.101Z,7.10
2019-01-19T15:59:17.985Z,9.43
2019-01-19T16:02:30.306Z,10.10
2019-01-19T16:05:36.497Z,8.40
2019-01-19T16:08:50.525Z,12.00
2019-01-19T16:12:18.892Z,16.13
2019-01-19T16:15:30.163Z,18.90
2019-01-19T16:18:31.431Z,9.30
2019-01-19T16:21:27.481Z,8.03
2019-01-19T16:24:36.241Z,11.27
2019-01-19T16:27:30.293Z,11.20
2019-01-19T16:30:28.557Z,9.00
2019-01-19T16:33:52.302Z,7.23
2019-01-19T16:36:55.822Z,8.67
2019-01-19T16:40:12.056Z,9.03
2019-01-19T16:43:04.138Z,9.13
2019-01-19T16:45:58.570Z,9.37
2019-01-19T16:48:38.060Z,9.17
2019-01-19T16:51:36.009Z,9.60
2019-01-19T16:54:10.753Z,7.90
2019-01-19T16:57:17.482Z,9.10
2019-01-19T17:00:16.758Z,8.73
2019-01-19T17:03:21.313Z,8.50
2019-01-19T17:06:43.701Z,7.67
2019-01-19T17:09:41.374Z,8.30
2019-01-19T17:13:02.956Z,10.40
2019-01-19T17:15:58.629Z,9.40
2019-01-19T17:19:21.117Z,8.30
2019-01-19T17:22:11.577Z,8.83
2019-01-19T17:25:24.382Z,7.90
2019-01-19T17:28:31.669Z,8.80
2019-01-19T17:31:46.997Z,9.47
2019-01-19T17:34:41.049Z,8.67
2019-01-19T17:37:23.966Z,9.40
2019-01-19T17:40:20.925Z,7.87
2019-01-19T17:43:26.036Z,9.27
2019-01-19T17:46:49.612Z,7.70
2019-01-19T17:49:53.357Z,8.70
2019-01-19T17:53:16.125Z,8.93
2019-01-19T17:56:20.929Z,8.83
2019-01-19T17:59:11.542Z,9.20
2019-01-19T18:02:00.046Z,9.77
2019-01-19T18:04:49.486Z,9.53
2019-01-19T18:07:47.663Z,9.67
2019-01-19T18:10:38.437Z,8.77
2019-01-19T18:13:56.953Z,8.40
2019-01-19T18:17:11.645Z,13.73
2019-01-19T18:20:17.487Z,8.60
2019-01-19T18:23:19.417Z,8.17
2019-01-19T18:25:58.992Z,8.70
2019-01-19T18:29:17.002Z,8.67
2019-01-19T18:31:58.502Z,8.90
2019-01-19T18:34:57.018Z,9.20
2019-01-19T18:38:10.358Z,10.10
2019-01-19T18:41:25.742Z,10.43
2019-01-19T18:44:50.017Z,8.17
2019-01-19T18:47:52.225Z,12.43
2019-01-19T18:51:18.023Z,9.40
2019-01-19T18:54:37.876Z,8.77
2019-01-19T18:57:50.200Z,10.47
2019-01-19T19:00:54.992Z,9.73
2019-01-19T19:03:59.137Z,11.40
2019-01-19T19:07:24.281Z,11.40
2019-01-19T19:10:29.577Z,9.93
2019-01-19T19:13:38.525Z,10.20
2019-01-19T19:16:46.195Z,9.87
2019-01-19T19:19:31.997Z,8.70
2019-01-19T19:22:39.378Z,9.17
2019-01-19T19:25:34.088Z,9.83
2019-01-19T19:28:34.350Z,9.13
2019-01-19T19:31:21.281Z,8.90
2019-01-19T19:34:31.093Z,9.87
2019-01-19T19:37:26.915Z,9.07
2019-01-19T19:40:28.127Z,9.63
2019-01-19T19:43:32.180Z,9.00
2019-01-19T19:46:38.870Z,8.77
2019-01-19T19:49:24.551Z,8.17
2019-01-19T19:51:55.422Z,8.60
2019-01-19T19:54:25.542Z,8.10
2019-01-19T19:56:54.604Z,9.13
2019-01-19T19:59:23.698Z,8.90
2019-01-19T20:01:52.949Z,10.00
2019-01-19T20:04:21.995Z,7.67
2019-01-19T20:06:51.090Z,8.03
2019-01-19T20:09:21.511Z,8.33
2019-01-19T20:11:50.762Z,8.00
2019-01-19T20:14:19.765Z,8.47
2019-01-19T20:16:48.757Z,8.20
2019-01-19T20:19:17.705Z,8.60
2019-01-19T20:21:46.711Z,8.60
2019-01-19T20:24:15.636Z,7.80
2019-01-19T20:26:44.665Z,8.20
2019-01-19T20:29:13.961Z,9.00
2019-01-19T20:31:43.282Z,8.20
2019-01-19T20:34:12.297Z,8.27
2019-01-19T20:36:41.377Z,8.60
2019-01-19T20:39:10.742Z,6.83
2019-01-19T20:41:39.838Z,8.20
2019-01-19T20:44:08.766Z,6.90
2019-01-19T20:46:37.684Z,7.43
2019-01-19T20:49:06.700Z,7.80
2019-01-19T20:51:35.689Z,8.50
2019-01-19T20:54:04.718Z,7.20
2019-01-19T20:56:33.741Z,8.43
2019-01-19T20:59:02.994Z,9.33
2019-01-19T21:01:32.004Z,8.60
2019-01-19T21:04:00.989Z,7.93
2019-01-19T21:06:31.424Z,7.50
2019-01-19T21:09:00.581Z,7.27
2019-01-19T21:11:29.796Z,7.70
2019-01-19T21:13:58.640Z,7.83
2019-01-19T21:16:27.885Z,7.90
2019-01-19T21:18:57.014Z,12.80
2019-01-19T21:21:26.020Z,9.90
2019-01-19T21:23:55.058Z,8.63
2019-01-19T21:26:24.084Z,7.20
2019-01-19T21:28:53.089Z,7.77
2019-01-19T21:31:22.093Z,7.60
2019-01-19T21:33:51.117Z,7.80
2019-01-19T21:36:20.117Z,8.00
2019-01-19T21:38:49.077Z,7.70
2019-01-19T21:41:18.084Z,9.00
2019-01-19T21:43:47.096Z,8.00
2019-01-19T21:46:16.343Z,9.43
2019-01-19T21:48:45.196Z,9.10
2019-01-19T21:51:14.202Z,11.27
2019-01-19T21:53:44.818Z,7.63
2019-01-19T21:56:13.930Z,14.40
2019-01-19T21:58:42.918Z,10.17
2019-01-19T22:01:11.920Z,22.23
2019-01-19T22:03:41.231Z,9.17
2019-01-19T22:06:10.161Z,8.27
2019-01-19T22:08:39.173Z,30.03
2019-01-19T22:11:08.280Z,8.83
2019-01-19T22:13:37.582Z,14.90
2019-01-19T22:16:06.592Z,17.10
2019-01-19T22:18:35.611Z,45.37
2019-01-19T22:21:04.609Z,19.07
2019-01-19T22:23:33.568Z,9.60
2019-01-19T22:26:03.159Z,28.47
2019-01-19T22:28:32.167Z,47.00
2019-01-19T22:31:01.168Z,30.00
2019-01-19T22:33:30.236Z,23.43
2019-01-19T22:35:59.534Z,8.50
2019-01-19T22:38:28.465Z,11.57
2019-01-19T22:40:57.396Z,10.17
2019-01-19T22:43:31.530Z,19.27
2019-01-19T22:46:00.594Z,28.50
2019-01-19T22:48:29.453Z,14.50
2019-01-19T22:50:58.411Z,13.10
2019-01-19T22:53:27.408Z,11.63
2019-01-19T22:55:56.411Z,11.50
2019-01-19T22:58:25.340Z,11.80
2019-01-19T23:01:33.458Z,7.50
2019-01-19T23:04:02.447Z,6.83
2019-01-19T23:06:31.455Z,6.83
2019-01-19T23:09:00.395Z,6.70
2019-01-19T23:11:33.799Z,20.63
2019-01-19T23:14:00.594Z,12.90
2019-01-19T23:16:29.545Z,17.40
2019-01-19T23:18:58.465Z,11.70
2019-01-19T23:21:27.465Z,7.90
2019-01-19T23:23:56.491Z,11.27
2019-01-19T23:26:25.874Z,9.13
2019-01-19T23:28:54.877Z,6.97
2019-01-19T23:31:24.791Z,7.27
2019-01-19T23:33:54.099Z,7.17
2019-01-19T23:36:23.377Z,8.30
2019-01-19T23:38:52.445Z,7.00
2019-01-19T23:41:21.372Z,7.90
2019-01-19T23:43:50.365Z,6.50
2019-01-19T23:46:19.394Z,8.13
2019-01-19T23:48:48.326Z,8.07
2019-01-19T23:51:17.257Z,9.17
2019-01-19T23:53:46.477Z,15.63
2019-01-19T23:56:15.473Z,13.50
2019-01-19T23:58:44.404Z,7.07
